Date,TemperatureHighF,TemperatureAvgF,TemperatureLowF,DewpointHighF,DewpointAvgF,DewpointLowF,HumidityHigh,HumidityAvg,HumidityLow,PressureMaxIn,PressureMinIn,WindSpeedMaxMPH,WindSpeedAvgMPH,GustSpeedMaxMPH,PrecipitationSumIn
2013-1-1,41.0,37.3,33.1,15.8,11.3,6.3,45,34,31,29.98,29.90,5,0,10,0.00
2013-1-2,38.1,31.9,26.1,13.9,4.1,-3.0,42,31,21,30.19,29.96,10,2,10,0.00
2013-1-3,38.7,29.1,19.9,8.6,2.9,-1.1,45,33,24,30.19,30.10,8,2,9,0.00
2013-1-4,42.4,35.5,32.4,9.8,5.9,3.8,31,29,23,30.16,30.07,18,6,18,0.00
2013-1-5,47.3,36.9,29.7,10.3,6.5,2.8,32,28,22,30.34,30.10,10,2,17,0.00
2013-1-6,46.0,39.1,30.2,14.7,11.6,8.1,43,32,27,30.13,29.98,8,2,10,0.00
2013-1-7,45.7,37.7,27.1,13.6,9.8,5.8,42,32,25,30.40,30.10,8,2,13,0.00
2013-1-8,55.8,36.0,24.1,20.4,13.3,6.9,56,40,23,30.37,30.28,6,1,8,0.00
2013-1-9,49.6,38.0,27.0,29.4,18.4,13.3,60,46,28,30.37,30.19,7,1,13,0.00
2013-1-10,56.7,45.6,36.3,18.0,13.2,9.2,32,27,20,30.58,30.37,6,2,13,0.00
2013-1-11,47.3,42.4,39.2,36.3,21.6,10.3,81,47,28,30.43,30.07,9,1,10,0.00
2013-1-12,60.8,47.5,40.3,41.0,35.5,30.7,85,66,34,30.13,30.04,3,0,5,0.04
2013-1-13,61.3,52.0,43.2,46.7,39.3,35.2,83,64,38,30.07,29.90,5,0,6,0.00
2013-1-14,55.0,49.3,38.5,50.2,32.5,16.1,87,56,29,30.28,29.90,8,1,13,0.16
2013-1-15,40.5,37.9,34.3,33.6,28.7,22.4,85,70,50,30.31,30.13,7,1,9,0.47
2013-1-16,39.0,36.5,33.8,36.2,33.1,30.1,94,88,83,30.13,29.84,0,0,6,0.55
2013-1-17,41.0,38.2,35.2,35.9,17.4,10.4,87,44,30,30.10,29.93,8,1,13,0.00
2013-1-18,39.9,33.6,28.9,13.7,4.1,-2.5,41,29,21,30.46,30.04,11,3,17,0.00
2013-1-19,59.7,40.5,25.9,16.2,10.1,6.1,43,30,17,30.31,29.90,11,4,18,0.00
2013-1-20,56.7,42.7,31.6,18.9,6.9,-3.6,32,23,17,30.07,29.81,25,4,25,0.00
2013-1-21,44.8,32.6,25.9,8.6,0.5,-6.0,32,25,20,30.07,29.78,13,2,22,0.00
2013-1-22,25.9,18.7,12.7,-6.0,-13.1,-17.3,25,23,21,30.25,29.93,14,4,23,0.00
2013-1-23,27.0,18.5,10.2,-1.9,-12.8,-19.5,37,24,21,30.28,30.07,10,2,15,0.00
2013-1-24,29.5,20.5,12.9,2.3,-4.8,-17.2,49,34,21,30.49,30.04,10,2,16,0.00
2013-1-25,22.5,18.3,11.7,3.6,-4.9,-16.4,45,36,24,30.49,30.01,6,0,10,0.00
2013-1-26,35.8,26.2,19.2,12.0,7.0,2.0,49,44,32,30.40,30.04,4,0,6,0.08
2013-1-27,38.3,28.4,19.0,8.8,4.3,0.2,44,36,26,30.55,30.40,8,1,9,0.00
2013-1-28,46.8,37.0,29.8,37.9,23.3,9.0,85,58,38,30.40,30.01,6,1,11,0.12
2013-1-29,71.4,57.7,45.9,40.6,32.7,28.4,76,41,23,30.07,29.90,9,3,11,0.00
2013-1-30,69.8,60.0,55.8,55.1,44.3,30.4,97,61,32,29.90,29.25,18,4,26,1.22
2013-1-31,55.8,38.6,28.0,55.8,15.0,-0.8,100,41,27,29.87,29.19,16,6,25,0.24
2013-2-1,29.1,24.0,16.7,15.6,-1.3,-9.6,61,33,26,30.34,29.78,14,4,25,0.00
2013-2-2,29.1,21.4,12.7,10.2,-0.7,-9.2,48,37,31,30.34,29.96,9,2,10,0.00
2013-2-3,35.6,29.0,23.9,21.2,12.3,1.5,70,50,33,29.96,29.78,13,2,18,0.00
2013-2-4,37.0,30.2,23.2,12.3,4.4,-1.1,42,33,29,30.04,29.84,10,2,15,0.00
2013-2-5,40.3,34.2,30.4,24.9,18.4,10.2,70,53,42,29.90,29.81,6,0,7,0.00
2013-2-6,43.7,35.7,27.0,26.4,15.5,6.9,74,45,29,30.31,29.90,10,2,14,0.00
2013-2-7,41.5,33.0,25.0,14.4,10.1,6.7,51,39,29,30.37,30.16,6,1,8,0.00
2013-2-8,40.1,35.8,32.9,28.8,18.7,8.0,67,50,34,30.16,29.75,12,2,25,0.00
2013-2-9,45.5,33.3,24.1,10.0,4.8,-1.0,39,30,20,30.34,29.93,19,3,21,0.00
2013-2-10,48.9,33.5,17.4,10.1,5.2,1.5,54,32,19,30.40,30.13,8,2,13,0.00
2013-2-11,62.8,48.9,35.4,38.3,25.2,6.0,84,45,17,30.16,29.63,15,4,22,0.12
2013-2-12,58.8,47.6,35.4,14.0,9.3,2.6,31,21,17,29.96,29.81,22,4,22,0.00
2013-2-13,45.9,36.5,30.2,27.5,14.8,7.7,77,43,28,29.90,29.63,5,1,7,0.04
2013-2-14,51.3,38.9,31.8,30.3,16.0,10.1,81,41,26,29.96,29.72,9,2,11,0.04
2013-2-15,55.9,40.3,32.4,29.8,19.0,11.5,78,45,25,29.98,29.87,6,1,11,0.12
2013-2-16,37.9,33.3,28.2,29.2,15.0,1.7,85,51,30,29.96,29.84,9,2,11,0.00
2013-2-17,32.2,25.9,22.3,1.8,-3.1,-8.3,36,28,23,30.19,29.84,13,4,22,0.00
2013-2-18,47.1,31.9,17.4,7.1,-1.8,-10.9,33,23,18,30.37,30.16,8,2,13,0.00
2013-2-19,52.3,40.1,31.3,26.1,12.9,1.2,49,33,21,30.16,29.81,15,4,23,0.04
2013-2-20,37.4,30.2,23.4,6.7,-1.4,-8.2,30,25,22,30.46,30.04,17,6,24,0.00
2013-2-21,41.4,29.5,22.8,4.3,-1.7,-8.0,34,26,21,30.69,30.46,10,3,17,0.00
2013-2-22,32.5,29.7,24.8,17.1,9.6,0.5,53,43,32,30.96,30.60,6,0,10,0.00
2013-2-23,47.7,38.2,32.4,28.3,23.2,17.1,72,55,39,30.99,30.58,5,0,6,0.00
2013-2-24,51.1,39.8,30.0,32.8,17.1,2.6,80,44,21,31.37,30.66,12,2,17,0.00
2013-2-25,50.5,35.2,22.5,12.0,6.4,1.6,47,31,19,31.52,31.31,6,1,9,0.00
2013-2-26,40.5,35.0,27.9,39.0,21.4,6.6,96,60,34,31.52,30.90,9,2,14,0.75
2013-2-27,55.8,43.8,37.2,41.0,26.3,14.8,100,58,25,31.61,31.23,12,2,15,0.04
2013-2-28,43.9,40.1,35.4,21.1,12.9,9.8,45,33,28,31.61,31.58,10,4,15,0.00
2013-3-1,44.2,38.5,33.3,13.6,10.6,5.8,35,31,28,31.61,31.43,8,3,16,0.00
2013-3-2,35.8,32.1,29.7,10.1,6.1,3.3,41,33,30,31.61,31.61,10,2,15,0.00
2013-3-3,43.3,32.9,27.7,6.7,2.7,-2.1,34,28,20,31.61,31.58,11,3,15,0.00
2013-3-4,46.2,33.7,26.4,7.3,1.3,-3.4,31,25,20,31.61,31.61,10,3,17,0.00
2013-3-5,53.6,38.4,26.4,18.4,5.6,-0.1,51,26,18,31.61,31.61,8,2,15,0.00
2013-3-6,38.7,35.7,33.6,28.0,22.1,14.1,79,59,37,31.61,29.71,25,3,25,0.55
2013-3-7,45.5,39.6,35.8,15.2,13.0,10.3,41,34,27,30.18,30.03,10,3,17,0.00
2013-3-8,49.6,40.3,32.4,14.3,10.6,8.8,42,30,21,30.30,30.15,20,4,22,0.00
2013-3-9,63.1,42.5,27.0,16.2,11.4,4.6,51,31,16,30.39,30.24,5,1,8,0.00
2013-3-10,67.8,47.5,28.9,18.4,13.0,9.5,48,28,15,30.30,30.18,9,2,14,0.00
2013-3-11,60.3,51.9,43.0,31.6,21.6,7.3,48,31,17,30.18,29.86,13,3,17,0.00
2013-3-12,58.1,50.8,39.7,49.3,28.8,10.0,85,46,26,29.98,29.77,15,3,15,0.75
2013-3-13,50.0,38.9,32.5,13.6,7.8,2.6,37,28,19,30.06,29.89,20,4,20,0.00
2013-3-14,47.1,37.1,30.2,7.3,2.3,-1.5,28,23,19,30.15,30.03,13,4,23,0.00
2013-3-15,59.4,44.2,29.3,16.3,8.2,-0.8,32,23,17,30.09,29.77,13,4,15,0.00
2013-3-16,55.2,44.5,36.7,20.9,17.8,13.5,50,35,26,29.92,29.65,10,2,13,0.00
2013-3-17,40.1,37.3,35.6,20.3,13.1,7.3,53,38,28,30.24,29.92,10,2,12,0.00
2013-3-18,36.3,33.9,31.3,29.4,17.7,7.0,83,54,30,30.30,29.89,5,1,8,0.20
2013-3-19,59.4,43.2,33.8,34.9,20.1,0.2,85,50,17,29.92,29.74,26,4,26,0.04
2013-3-20,53.4,41.6,31.8,13.5,4.1,-4.8,39,21,18,29.98,29.77,15,5,22,0.00
2013-3-21,36.9,31.6,26.1,12.0,-0.3,-7.6,37,25,20,29.89,29.80,13,3,18,0.00
2013-3-22,48.6,35.5,25.3,8.1,1.3,-5.9,29,23,19,30.01,29.89,12,4,16,0.00
2013-3-23,57.6,39.3,23.2,13.0,6.5,0.1,44,27,17,30.03,29.92,11,2,13,0.00
2013-3-24,42.6,34.7,27.1,23.4,10.8,3.3,64,39,23,30.01,29.65,5,1,9,0.00
2013-3-25,39.4,35.4,33.3,25.9,22.5,18.0,72,60,42,29.71,29.53,6,0,8,0.39
2013-3-26,48.9,39.2,32.2,30.1,19.6,10.1,82,50,25,30.01,29.71,7,1,14,0.12
2013-3-27,50.4,41.0,33.1,15.8,12.0,7.0,43,31,19,30.12,30.01,10,3,20,0.00
2013-3-28,48.2,41.0,33.6,15.7,12.7,9.0,37,31,27,30.24,30.09,14,3,17,0.00
2013-3-29,57.6,45.6,37.0,19.8,13.1,6.3,40,28,17,30.24,30.15,6,1,10,0.00
2013-3-30,62.8,46.0,30.9,16.3,11.2,3.4,41,26,16,30.24,30.09,6,1,10,0.00
2013-3-31,50.0,46.3,40.5,40.8,24.3,3.5,77,46,20,30.09,29.74,6,0,6,0.08
2013-4-1,58.3,45.9,37.8,40.6,22.8,1.2,87,45,21,29.98,29.77,13,3,22,0.00
2013-4-2,51.1,39.4,30.4,10.2,3.2,-3.1,28,22,18,30.18,30.01,10,2,15,0.00
2013-4-3,53.4,38.0,25.7,10.9,3.7,-2.6,32,24,17,30.39,30.18,13,3,17,0.00
2013-4-4,53.6,37.2,22.1,11.0,2.9,-6.2,42,24,18,30.39,30.06,10,2,13,0.00
2013-4-5,68.2,50.0,35.2,25.8,15.9,6.3,61,29,15,30.06,29.83,10,3,14,0.00
2013-4-6,61.9,47.5,34.3,15.5,8.1,0.2,30,20,16,30.33,30.06,8,2,11,0.00
2013-4-7,72.5,57.0,42.4,24.3,16.8,6.3,28,21,16,30.21,29.95,13,5,17,0.00
2013-4-8,82.9,67.5,53.4,31.4,25.8,21.5,36,22,14,30.06,29.92,10,3,13,0.00
2013-4-9,86.5,72.4,57.4,35.7,30.1,23.5,36,22,13,30.09,29.92,9,3,13,0.00
2013-4-10,90.7,75.5,60.3,37.2,31.6,27.3,34,21,12,29.98,29.77,12,3,15,0.00
2013-4-11,87.6,71.4,57.4,40.6,35.2,25.8,51,29,15,29.92,29.71,12,2,17,0.00
2013-4-12,74.8,59.2,52.9,56.4,46.2,38.7,97,65,32,29.77,29.56,9,3,14,0.31